Time;durP1;ratioP1;P1;durP2;ratioP2;P2;SDS_P1;SDS_P2;PMS_P1;PMS_P2;Temp;Humidity;BMP_temperature;BMP_pressure;BME280_temperature;BME280_humidity;BME280_pressure;Samples;Min_cycle;Max_cycle;Signal;HPM_P1;HPM_P2
2023/09/29 00:01:35;;;;;;;;;;;;;;;15.25;100.00;101553.91;5038241;28;19928;-70
2023/09/29 00:04:06;;;;;;;;;;;;;;;15.28;100.00;101555.50;5037254;28;19995;-70
2023/09/29 00:06:32;;;;;;;;;;;;;;;15.29;100.00;101551.81;5037428;28;19924;-70
2023/09/29 00:08:58;;;;;;;;;;;;;;;15.32;100.00;101548.84;5038333;28;20182;-70
2023/09/29 00:11:23;;;;;;;;;;;;;;;15.38;100.00;101544.75;5037046;28;19921;-69
2023/09/29 00:13:48;;;;;;;;;;;;;;;15.39;100.00;101547.31;5037018;28;19932;-69
2023/09/29 00:16:13;;;;;;;;;;;;;;;15.39;100.00;101541.91;5038339;28;19972;-69
2023/09/29 00:18:38;;;;;;;;;;;;;;;15.36;100.00;101541.31;5037871;28;20023;-69
2023/09/29 00:21:04;;;;;;;;;;;;;;;15.35;100.00;101534.19;5038422;28;19921;-70
2023/09/29 00:23:30;;;;;;;;;;;;;;;15.30;100.00;101537.31;5037011;28;19926;-69
2023/09/29 00:25:56;;;;;;;;;;;;;;;15.28;100.00;101537.41;5037615;28;20283;-69
2023/09/29 00:28:21;;;;;;;;;;;;;;;15.32;100.00;101529.03;5038023;28;19920;-69
2023/09/29 00:30:46;;;;;;;;;;;;;;;15.30;100.00;101540.84;5036379;28;19921;-69
2023/09/29 00:33:12;;;;;;;;;;;;;;;15.32;100.00;101539.88;5038059;28;19926;-69
2023/09/29 00:35:37;;;;;;;;;;;;;;;15.28;100.00;101545.53;5038192;28;20668;-69
2023/09/29 00:38:03;;;;;;;;;;;;;;;15.32;100.00;101538.03;5037265;28;20248;-69
2023/09/29 00:40:28;;;;;;;;;;;;;;;15.33;100.00;101541.56;5038155;28;19917;-70
2023/09/29 00:42:53;;;;;;;;;;;;;;;15.34;100.00;101540.59;5033941;28;19928;-69
2023/09/29 00:45:22;;;;;;;;;;;;;;;15.43;100.00;101534.38;5037640;28;20008;-70
2023/09/29 00:47:50;;;;;;;;;;;;;;;15.49;100.00;101530.28;5036478;28;19916;-69
2023/09/29 00:50:16;;;;;;;;;;;;;;;15.54;100.00;101530.72;5036515;28;20488;-69
2023/09/29 00:52:42;;;;;;;;;;;;;;;15.57;100.00;101527.75;5034564;28;19928;-69
2023/09/29 00:55:11;;;;;;;;;;;;;;;15.65;100.00;101533.31;5038020;28;19966;-69
2023/09/29 00:57:40;;;;;;;;;;;;;;;15.60;100.00;101522.06;5038023;28;20340;-70
2023/09/29 01:00:13;;;;;;;;;;;;;;;15.70;100.00;101527.53;5035672;28;19967;-70
2023/09/29 01:02:38;;;;;;;;;;;;;;;15.70;100.00;101516.69;5035772;28;19927;-70
2023/09/29 01:05:04;;;;;;;;;;;;;;;15.68;100.00;101521.38;5037454;28;19916;-70
2023/09/29 01:07:29;;;;;;;;;;;;;;;15.77;100.00;101527.84;5034898;28;19921;-71
2023/09/29 01:09:54;;;;;;;;;;;;;;;15.70;100.00;101525.66;5036216;28;20007;-70
2023/09/29 01:12:27;;;;;;;;;;;;;;;15.71;100.00;101521.13;5019373;28;19927;-70
2023/09/29 01:14:52;;;;;;;;;;;;;;;15.80;100.00;101522.97;5035689;28;19964;-70
2023/09/29 01:17:18;;;;;;;;;;;;;;;15.83;100.00;101517.31;5037863;28;21406;-71
2023/09/29 01:19:44;;;;;;;;;;;;;;;15.74;100.00;101526.28;5037045;28;19932;-71
2023/09/29 01:22:09;;;;;;;;;;;;;;;15.85;100.00;101519.88;5037091;28;19920;-70
2023/09/29 01:24:35;;;;;;;;;;;;;;;15.85;100.00;101515.31;5036078;28;20434;-70
2023/09/29 01:27:00;;;;;;;;;;;;;;;15.88;100.00;101514.22;5037744;28;20367;-70
2023/09/29 01:29:25;;;;;;;;;;;;;;;15.87;100.00;101507.09;5037344;28;19925;-70
2023/09/29 01:31:51;;;;;;;;;;;;;;;15.84;100.00;101510.06;5037412;28;19936;-71
2023/09/29 01:34:17;;;;;;;;;;;;;;;15.86;100.00;101511.66;5037268;28;19929;-70
2023/09/29 01:36:42;;;;;;;;;;;;;;;15.85;100.00;101501.78;5037258;28;19962;-71
2023/09/29 01:39:08;;;;;;;;;;;;;;;15.84;100.00;101500.06;5036455;28;19921;-71
2023/09/29 01:41:33;;;;;;;;;;;;;;;15.81;100.00;101491.38;5015776;28;20299;-70
2023/09/29 01:43:58;;;;;;;;;;;;;;;15.77;100.00;101481.81;5036933;28;19917;-70
2023/09/29 01:46:24;;;;;;;;;;;;;;;15.84;100.00;101481.09;5037625;28;19921;-70
2023/09/29 01:48:50;;;;;;;;;;;;;;;15.89;100.00;101470.75;5035236;28;20242;-70
2023/09/29 01:51:16;;;;;;;;;;;;;;;15.87;100.00;101470.03;5037387;28;19917;-70
2023/09/29 01:53:42;;;;;;;;;;;;;;;15.86;100.00;101468.31;5036035;28;20334;-70
2023/09/29 01:56:07;;;;;;;;;;;;;;;15.85;100.00;101474.69;5037567;28;19959;-70
2023/09/29 01:58:33;;;;;;;;;;;;;;;15.85;100.00;101468.44;5035183;28;19917;-70
2023/09/29 02:00:58;;;;;;;;;;;;;;;15.88;100.00;101468.19;5036721;28;20365;-70
2023/09/29 02:03:23;;;;;;;;;;;;;;;15.98;100.00;101455.50;5037446;28;20397;-71
2023/09/29 02:05:49;;;;;;;;;;;;;;;15.97;100.00;101444.84;5038377;28;20453;-70
2023/09/29 02:08:14;;;;;;;;;;;;;;;15.98;100.00;101457.38;5039376;28;19960;-70
2023/09/29 02:10:40;;;;;;;;;;;;;;;15.96;100.00;101453.97;5039288;28;19917;-71
2023/09/29 02:13:05;;;;;;;;;;;;;;;16.05;100.00;101450.38;5021448;28;20289;-71
2023/09/29 02:15:33;;;;;;;;;;;;;;;16.08;100.00;101454.69;5039427;28;19917;-70
2023/09/29 02:17:59;;;;;;;;;;;;;;;16.12;100.00;101440.72;5038809;28;20351;-68
2023/09/29 02:20:28;;;;;;;;;;;;;;;16.06;100.00;101440.44;5022732;28;19925;-71
2023/09/29 02:22:55;;;;;;;;;;;;;;;16.15;100.00;101437.72;5038417;28;19921;-72
2023/09/29 02:25:25;;;;;;;;;;;;;;;16.23;100.00;101438.88;5039452;28;19920;-70
2023/09/29 02:27:50;;;;;;;;;;;;;;;16.18;100.00;101436.56;5040042;28;20011;-71
2023/09/29 02:30:16;;;;;;;;;;;;;;;16.13;100.00;101441.59;5039641;28;20058;-71
2023/09/29 02:32:41;;;;;;;;;;;;;;;16.08;100.00;101441.97;5021849;28;20056;-71
2023/09/29 02:35:07;;;;;;;;;;;;;;;16.06;100.00;101437.72;5022275;28;19927;-71
2023/09/29 02:37:33;;;;;;;;;;;;;;;16.09;100.00;101432.88;5037856;28;19932;-71
2023/09/29 02:39:58;;;;;;;;;;;;;;;16.09;100.00;101434.72;5040219;28;20332;-70
2023/09/29 02:42:23;;;;;;;;;;;;;;;16.14;100.00;101438.72;5036286;28;19920;-69
2023/09/29 02:44:49;;;;;;;;;;;;;;;16.05;100.00;101442.25;5040386;28;20438;-71
2023/09/29 02:47:14;;;;;;;;;;;;;;;15.99;100.00;101437.44;5037865;28;19960;-70
2023/09/29 02:49:40;;;;;;;;;;;;;;;16.03;100.00;101431.59;5038944;28;20019;-71
2023/09/29 02:52:06;;;;;;;;;;;;;;;16.06;100.00;101437.72;5039382;28;20570;-71
2023/09/29 02:54:31;;;;;;;;;;;;;;;16.07;100.00;101424.03;5038487;28;20093;-70
2023/09/29 02:56:56;;;;;;;;;;;;;;;16.12;100.00;101418.19;5040266;28;19921;-70
2023/09/29 02:59:23;;;;;;;;;;;;;;;16.14;100.00;101414.34;5037943;28;19925;-71
2023/09/29 03:01:49;;;;;;;;;;;;;;;16.18;100.00;101413.06;5038164;28;19924;-70
2023/09/29 03:04:15;;;;;;;;;;;;;;;16.21;100.00;101401.06;5038254;28;19928;-70
2023/09/29 03:06:40;;;;;;;;;;;;;;;16.22;100.00;101399.22;5039513;28;19928;-71
2023/09/29 03:09:06;;;;;;;;;;;;;;;16.22;100.00;101391.94;5039273;28;20283;-70
2023/09/29 03:11:31;;;;;;;;;;;;;;;16.17;100.00;101396.94;5038718;28;20268;-70
2023/09/29 03:13:56;;;;;;;;;;;;;;;16.17;100.00;101399.63;5021724;28;20351;-70
2023/09/29 03:16:24;;;;;;;;;;;;;;;16.18;100.00;101393.22;5054288;28;19924;-70
2023/09/29 03:18:49;;;;;;;;;;;;;;;16.15;100.00;101394.38;5037629;28;19928;-70
2023/09/29 03:21:15;;;;;;;;;;;;;;;16.16;100.00;101403.34;5037804;28;19920;-70
2023/09/29 03:23:42;;;;;;;;;;;;;;;16.19;100.00;101403.06;5038531;28;19924;-70
2023/09/29 03:26:09;;;;;;;;;;;;;;;16.22;100.00;101389.25;5039563;28;20016;-70
2023/09/29 03:28:34;;;;;;;;;;;;;;;16.27;100.00;101391.53;5037690;28;19921;-70
2023/09/29 03:31:02;;;;;;;;;;;;;;;16.29;100.00;101400.34;5038167;28;19931;-70
2023/09/29 03:33:27;;;;;;;;;;;;;;;16.34;100.00;101389.94;5039537;28;20382;-70
2023/09/29 03:35:54;;;;;;;;;;;;;;;16.36;100.00;101378.97;5039178;28;19920;-71
2023/09/29 03:38:20;;;;;;;;;;;;;;;16.37;100.00;101384.22;5037266;28;20383;-70
2023/09/29 03:40:46;;;;;;;;;;;;;;;16.38;100.00;101383.25;5038508;28;19920;-70
2023/09/29 03:43:11;;;;;;;;;;;;;;;16.37;100.00;101367.13;5037448;28;19927;-70
2023/09/29 03:45:38;;;;;;;;;;;;;;;16.45;100.00;101368.13;5039016;28;19925;-71
2023/09/29 03:48:05;;;;;;;;;;;;;;;16.42;100.00;101371.13;5037509;28;19967;-71
2023/09/29 03:50:31;;;;;;;;;;;;;;;16.47;100.00;101354.41;5036731;28;20183;-70
2023/09/29 03:52:57;;;;;;;;;;;;;;;16.40;100.00;101350.59;5037155;28;19925;-71
2023/09/29 03:55:22;;;;;;;;;;;;;;;16.41;100.00;101345.00;5039026;28;19927;-70
2023/09/29 03:57:48;;;;;;;;;;;;;;;16.37;100.00;101349.00;5019630;28;19917;-69
2023/09/29 04:00:16;;;;;;;;;;;;;;;16.43;100.00;101339.44;5020666;28;20014;-68
2023/09/29 04:02:41;;;;;;;;;;;;;;;16.51;100.00;101350.41;5037328;28;19921;-69
2023/09/29 04:05:06;;;;;;;;;;;;;;;16.47;100.00;101346.28;5036336;28;19959;-69
2023/09/29 04:07:34;;;;;;;;;;;;;;;16.37;100.00;101346.28;5036431;28;19921;-70
2023/09/29 04:10:00;;;;;;;;;;;;;;;16.33;100.00;101347.59;5037186;28;19973;-71
2023/09/29 04:12:26;;;;;;;;;;;;;;;16.43;100.00;101334.00;5037111;28;20350;-70
2023/09/29 04:14:52;;;;;;;;;;;;;;;16.38;100.00;101334.47;5053724;28;19987;-71
2023/09/29 04:17:18;;;;;;;;;;;;;;;16.49;100.00;101334.31;5037960;28;20367;-71
2023/09/29 04:19:43;;;;;;;;;;;;;;;16.45;100.00;101335.59;5038347;28;20016;-71
2023/09/29 04:22:08;;;;;;;;;;;;;;;16.51;100.00;101336.00;5038133;28;20366;-70
2023/09/29 04:24:34;;;;;;;;;;;;;;;16.49;100.00;101333.44;5037977;28;20403;-71
2023/09/29 04:26:59;;;;;;;;;;;;;;;16.54;100.00;101336.56;5019874;28;20422;-70
2023/09/29 04:29:24;;;;;;;;;;;;;;;16.57;100.00;101339.00;5036433;28;20086;-70
2023/09/29 04:31:49;;;;;;;;;;;;;;;16.63;100.00;101334.81;5038437;28;19974;-70
2023/09/29 04:34:15;;;;;;;;;;;;;;;16.61;100.00;101342.25;5038082;28;19917;-71
2023/09/29 04:36:41;;;;;;;;;;;;;;;16.57;100.00;101329.97;5038184;28;19917;-70
2023/09/29 04:39:07;;;;;;;;;;;;;;;16.66;100.00;101330.97;5035133;28;19924;-70
2023/09/29 04:41:32;;;;;;;;;;;;;;;16.64;100.00;101328.41;5034172;28;20302;-70
2023/09/29 04:43:57;;;;;;;;;;;;;;;16.57;100.00;101325.44;5052892;28;19960;-70
2023/09/29 04:46:23;;;;;;;;;;;;;;;16.64;100.00;101323.84;5038252;28;20003;-71
2023/09/29 04:48:52;;;;;;;;;;;;;;;16.72;100.00;101319.53;5035824;28;19932;-69
2023/09/29 04:51:18;;;;;;;;;;;;;;;16.66;100.00;101322.84;5036770;28;20019;-70
2023/09/29 04:53:43;;;;;;;;;;;;;;;16.74;100.00;101321.09;5036016;28;19921;-70
2023/09/29 04:56:08;;;;;;;;;;;;;;;16.75;100.00;101316.53;5036694;28;20003;-71
2023/09/29 04:58:33;;;;;;;;;;;;;;;16.78;100.00;101311.69;5035989;28;20348;-70
2023/09/29 05:00:59;;;;;;;;;;;;;;;16.79;100.00;101316.09;5019877;28;19921;-70
2023/09/29 05:03:24;;;;;;;;;;;;;;;16.78;100.00;101310.81;5035627;28;19920;-69
2023/09/29 05:05:49;;;;;;;;;;;;;;;16.78;100.00;101308.97;5037664;28;20008;-71
2023/09/29 05:08:15;;;;;;;;;;;;;;;16.78;100.00;101305.38;5036716;28;19963;-69
2023/09/29 05:10:40;;;;;;;;;;;;;;;16.81;100.00;101304.25;5036371;28;20315;-70
2023/09/29 05:13:05;;;;;;;;;;;;;;;16.84;100.00;101309.34;5037614;28;19924;-71
2023/09/29 05:15:32;;;;;;;;;;;;;;;16.87;100.00;101306.34;5036953;28;19921;-71
2023/09/29 05:17:57;;;;;;;;;;;;;;;16.96;100.00;101304.59;5037245;28;19928;-73
2023/09/29 05:20:23;;;;;;;;;;;;;;;16.90;100.00;101311.47;5037248;28;19925;-71
2023/09/29 05:22:48;;;;;;;;;;;;;;;16.88;100.00;101303.50;5036745;28;19924;-71
2023/09/29 05:25:14;;;;;;;;;;;;;;;16.95;100.00;101298.31;5034942;28;20402;-70
2023/09/29 05:27:39;;;;;;;;;;;;;;;16.95;100.00;101303.75;5036038;28;19959;-70
2023/09/29 05:30:04;;;;;;;;;;;;;;;16.96;100.00;101304.59;5034012;28;19927;-71
2023/09/29 05:32:30;;;;;;;;;;;;;;;16.92;100.00;101296.78;5035768;28;19925;-71
2023/09/29 05:34:55;;;;;;;;;;;;;;;17.00;100.00;101293.31;5036723;28;20264;-70
2023/09/29 05:37:21;;;;;;;;;;;;;;;17.03;100.00;101295.75;5035557;28;19921;-71
2023/09/29 05:39:47;;;;;;;;;;;;;;;17.03;100.00;101305.72;5038669;28;19943;-71
2023/09/29 05:42:12;;;;;;;;;;;;;;;17.08;100.00;101298.00;5036970;28;19916;-71
2023/09/29 05:44:37;;;;;;;;;;;;;;;17.04;100.00;101297.44;5041226;28;20038;-71
2023/09/29 05:47:03;;;;;;;;;;;;;;;17.14;100.00;101300.09;5040889;28;19921;-70
2023/09/29 05:49:28;;;;;;;;;;;;;;;17.12;100.00;101302.13;5040860;28;19970;-71
2023/09/29 05:51:53;;;;;;;;;;;;;;;17.18;100.00;101308.78;5041099;28;19925;-71
2023/09/29 05:54:19;;;;;;;;;;;;;;;17.27;100.00;101302.47;5040000;28;19931;-71
2023/09/29 05:56:44;;;;;;;;;;;;;;;17.32;100.00;101302.00;5040958;28;19923;-70
2023/09/29 05:59:09;;;;;;;;;;;;;;;17.31;100.00;101294.84;5041169;28;19921;-71
2023/09/29 06:01:34;;;;;;;;;;;;;;;17.39;100.00;101295.78;5039932;28;20269;-70
2023/09/29 06:03:59;;;;;;;;;;;;;;;17.39;100.00;101282.22;5038846;28;19960;-69
2023/09/29 06:06:25;;;;;;;;;;;;;;;17.44;100.00;101299.91;5041303;28;20016;-72
2023/09/29 06:08:50;;;;;;;;;;;;;;;17.41;100.00;101289.34;5039341;28;19917;-72
2023/09/29 06:11:15;;;;;;;;;;;;;;;17.65;100.00;101281.44;5041446;28;19968;-69
2023/09/29 06:13:42;;;;;;;;;;;;;;;17.63;100.00;101279.91;5040578;28;20172;-71
2023/09/29 06:16:08;;;;;;;;;;;;;;;17.72;100.00;101278.13;5039466;28;19963;-70
2023/09/29 06:18:33;;;;;;;;;;;;;;;17.75;100.00;101285.97;5039876;28;20003;-69
2023/09/29 06:20:58;;;;;;;;;;;;;;;17.77;100.00;101290.22;5040597;28;19921;-71
2023/09/29 06:23:23;;;;;;;;;;;;;;;17.87;100.00;101294.72;5039925;28;19920;-70
2023/09/29 06:25:58;;;;;;;;;;;;;;;17.90;100.00;101294.41;5039551;28;20386;-71
2023/09/29 06:28:24;;;;;;;;;;;;;;;17.99;100.00;101299.78;5039072;28;19921;-70
2023/09/29 06:30:50;;;;;;;;;;;;;;;18.04;100.00;101285.72;5040272;28;19962;-69
2023/09/29 06:33:15;;;;;;;;;;;;;;;18.07;100.00;101288.13;5040398;28;20670;-70
2023/09/29 06:35:41;;;;;;;;;;;;;;;18.14;100.00;101286.47;5040428;28;19936;-70
2023/09/29 06:38:07;;;;;;;;;;;;;;;18.12;100.00;101290.38;5021381;28;19943;-70
2023/09/29 06:40:32;;;;;;;;;;;;;;;18.09;100.00;101296.97;5038737;28;20339;-72
2023/09/29 06:42:57;;;;;;;;;;;;;;;18.14;100.00;101289.19;5018341;28;20228;-71
2023/09/29 06:45:23;;;;;;;;;;;;;;;18.21;100.00;101297.56;5040601;28;19959;-70
2023/09/29 06:47:48;;;;;;;;;;;;;;;18.32;100.00;101287.44;5038210;28;19921;-69
2023/09/29 06:50:13;;;;;;;;;;;;;;;18.31;100.00;101293.91;5037789;28;19974;-72
2023/09/29 06:52:39;;;;;;;;;;;;;;;18.42;100.00;101294.50;5037304;28;19956;-71
2023/09/29 06:55:05;;;;;;;;;;;;;;;18.38;100.00;101289.53;5021766;28;19951;-70
2023/09/29 06:57:30;;;;;;;;;;;;;;;18.35;100.00;101301.56;5038496;28;20440;-71
2023/09/29 06:59:55;;;;;;;;;;;;;;;18.34;100.00;101289.00;5039010;28;19928;-71
2023/09/29 07:02:21;;;;;;;;;;;;;;;18.39;100.00;101304.84;5058765;28;20366;-72
2023/09/29 07:04:47;;;;;;;;;;;;;;;18.40;100.00;101295.66;5022180;28;19920;-71
2023/09/29 07:07:13;;;;;;;;;;;;;;;18.54;100.00;101302.38;5039355;28;20405;-71
2023/09/29 07:09:38;;;;;;;;;;;;;;;18.56;100.00;101300.31;5021790;28;19925;-69
2023/09/29 07:12:05;;;;;;;;;;;;;;;18.56;100.00;101313.94;5038616;28;20180;-71
2023/09/29 07:14:30;;;;;;;;;;;;;;;18.50;100.00;101309.16;5037643;28;19927;-70
2023/09/29 07:16:55;;;;;;;;;;;;;;;18.49;100.00;101307.44;5040060;28;19925;-70
2023/09/29 07:19:20;;;;;;;;;;;;;;;18.51;100.00;101308.97;5038607;28;19920;-69
2023/09/29 07:21:45;;;;;;;;;;;;;;;18.50;100.00;101310.00;5038398;28;19958;-70
2023/09/29 07:24:11;;;;;;;;;;;;;;;18.55;100.00;101296.78;5037647;28;20039;-71
2023/09/29 07:26:36;;;;;;;;;;;;;;;18.61;100.00;101308.84;5039153;28;19982;-70
2023/09/29 07:29:03;;;;;;;;;;;;;;;18.59;100.00;101309.03;5037706;28;19922;-72
2023/09/29 07:31:38;;;;;;;;;;;;;;;18.61;100.00;101325.19;5039464;28;19920;-71
2023/09/29 07:34:03;;;;;;;;;;;;;;;18.65;100.00;101321.13;5038001;28;19992;-71
2023/09/29 07:36:33;;;;;;;;;;;;;;;18.68;100.00;101322.66;5039582;28;19932;-72
2023/09/29 07:38:58;;;;;;;;;;;;;;;18.76;100.00;101317.28;5039070;28;19924;-72
2023/09/29 07:41:23;;;;;;;;;;;;;;;18.74;100.00;101320.16;5036490;28;19970;-72
2023/09/29 07:43:49;;;;;;;;;;;;;;;18.80;100.00;101328.69;5038510;28;20286;-71
2023/09/29 07:46:15;;;;;;;;;;;;;;;18.87;100.00;101310.69;5037652;28;20027;-70
2023/09/29 07:48:40;;;;;;;;;;;;;;;18.99;100.00;101322.16;5037616;28;19927;-71
2023/09/29 07:51:05;;;;;;;;;;;;;;;19.11;100.00;101329.03;5039325;28;20378;-71
2023/09/29 07:53:30;;;;;;;;;;;;;;;19.21;100.00;101319.88;5037299;28;20342;-71
2023/09/29 07:55:55;;;;;;;;;;;;;;;19.25;100.00;101313.94;5037780;28;20411;-70
2023/09/29 07:58:21;;;;;;;;;;;;;;;19.27;100.00;101319.22;5053528;28;20434;-71
2023/09/29 08:00:46;;;;;;;;;;;;;;;19.36;100.00;101311.91;5039143;28;19963;-71
2023/09/29 08:03:11;;;;;;;;;;;;;;;19.45;100.00;101321.81;5037736;28;20378;-75
2023/09/29 08:05:36;;;;;;;;;;;;;;;19.52;100.00;101322.00;5038666;28;20286;-72
2023/09/29 08:08:02;;;;;;;;;;;;;;;19.57;100.00;101325.94;5036575;28;19921;-71
2023/09/29 08:10:27;;;;;;;;;;;;;;;19.59;100.00;101326.63;5037253;28;20010;-74
2023/09/29 08:12:52;;;;;;;;;;;;;;;19.61;100.00;101326.44;5038562;28;20393;-73
2023/09/29 08:15:20;;;;;;;;;;;;;;;19.65;100.00;101316.94;5038840;28;21517;-72
2023/09/29 08:17:45;;;;;;;;;;;;;;;19.77;100.00;101322.91;5037543;28;19966;-71
2023/09/29 08:20:11;;;;;;;;;;;;;;;19.87;100.00;101328.19;5020598;28;19928;-72
2023/09/29 08:22:36;;;;;;;;;;;;;;;20.01;100.00;101322.06;5035978;28;20015;-71
2023/09/29 08:25:03;;;;;;;;;;;;;;;20.08;100.00;101323.09;5038076;28;20457;-72
2023/09/29 08:27:28;;;;;;;;;;;;;;;20.20;100.00;101330.94;5038284;28;20493;-71
2023/09/29 08:29:53;;;;;;;;;;;;;;;20.35;100.00;101323.78;5038652;28;19917;-73
2023/09/29 08:32:19;;;;;;;;;;;;;;;20.42;100.00;101304.00;5036498;28;19975;-71
2023/09/29 08:34:44;;;;;;;;;;;;;;;20.56;100.00;101338.72;5038317;28;19920;-69
2023/09/29 08:37:11;;;;;;;;;;;;;;;20.67;100.00;101340.22;5037572;28;19921;-71
2023/09/29 08:39:36;;;;;;;;;;;;;;;20.77;100.00;101345.56;5037831;28;19923;-72
2023/09/29 08:42:05;;;;;;;;;;;;;;;20.96;100.00;101345.16;5034065;28;19920;-72
2023/09/29 08:44:32;;;;;;;;;;;;;;;20.82;100.00;101343.13;5035852;28;19924;-73
2023/09/29 08:46:59;;;;;;;;;;;;;;;20.83;100.00;101347.56;5036949;28;19921;-71
2023/09/29 08:49:24;;;;;;;;;;;;;;;20.77;100.00;101345.56;5036774;28;19927;-73
2023/09/29 08:51:50;;;;;;;;;;;;;;;20.67;100.00;101345.69;5036814;28;19925;-70
2023/09/29 08:54:15;;;;;;;;;;;;;;;20.68;100.00;101336.47;5036046;28;19924;-72
2023/09/29 08:56:40;;;;;;;;;;;;;;;21.04;100.00;101362.53;5036281;28;19920;-70
2023/09/29 08:59:05;;;;;;;;;;;;;;;20.93;100.00;101369.19;5019837;28;19960;-71
2023/09/29 09:01:31;;;;;;;;;;;;;;;20.94;100.00;101359.97;5036828;28;20012;-69
2023/09/29 09:03:57;;;;;;;;;;;;;;;21.06;100.00;101365.91;5036685;28;19963;-73
2023/09/29 09:06:23;;;;;;;;;;;;;;;21.20;100.00;101365.19;5036980;28;19960;-74
2023/09/29 09:08:50;;;;;;;;;;;;;;;21.11;100.00;101363.50;5034856;28;20024;-71
2023/09/29 09:11:15;;;;;;;;;;;;;;;21.15;100.00;101364.03;5036026;28;20205;-71
2023/09/29 09:13:40;;;;;;;;;;;;;;;21.19;100.00;101368.94;5035551;28;19990;-71
2023/09/29 09:16:07;;;;;;;;;;;;;;;20.73;100.00;101374.19;5038229;28;19972;-72
2023/09/29 09:18:32;;;;;;;;;;;;;;;20.82;100.00;101371.28;5036076;28;20370;-70
2023/09/29 09:20:57;;;;;;;;;;;;;;;21.01;100.00;101366.44;5036747;28;19946;-72
2023/09/29 09:23:22;;;;;;;;;;;;;;;21.60;100.00;101372.47;5036069;28;20431;-69
2023/09/29 09:25:48;;;;;;;;;;;;;;;21.71;100.00;101383.03;5036200;28;20387;-74
2023/09/29 09:28:15;;;;;;;;;;;;;;;21.78;100.00;101377.69;5034443;28;19928;-70
2023/09/29 09:30:41;;;;;;;;;;;;;;;21.76;100.00;101379.75;5018994;28;19921;-70
2023/09/29 09:33:07;;;;;;;;;;;;;;;21.48;100.00;101361.09;5035445;28;20036;-70
2023/09/29 09:35:33;;;;;;;;;;;;;;;21.66;100.00;101383.59;5036263;28;20047;-71
2023/09/29 09:38:02;;;;;;;;;;;;;;;21.49;100.00;101385.53;5032225;28;20031;-72
2023/09/29 09:40:28;;;;;;;;;;;;;;;21.30;100.00;101389.53;5036007;28;19990;-70
2023/09/29 09:42:53;;;;;;;;;;;;;;;21.42;100.00;101382.66;5035644;28;20337;-72
2023/09/29 09:45:25;;;;;;;;;;;;;;;21.54;100.00;101383.13;5035418;28;19950;-70
2023/09/29 09:47:51;;;;;;;;;;;;;;;21.49;100.00;101393.72;5035107;28;20221;-71
2023/09/29 09:50:17;;;;;;;;;;;;;;;21.19;100.00;101396.25;5036366;28;20518;-70
2023/09/29 09:52:44;;;;;;;;;;;;;;;20.98;100.00;101367.66;5033341;28;20081;-70
2023/09/29 09:55:10;;;;;;;;;;;;;;;21.15;100.00;101403.06;5036291;28;19920;-70
2023/09/29 09:57:43;;;;;;;;;;;;;;;21.20;100.00;101408.00;5035304;28;20031;-71
2023/09/29 10:00:10;;;;;;;;;;;;;;;20.71;100.00;101422.59;5035823;28;19968;-71
2023/09/29 10:02:46;;;;;;;;;;;;;;;20.13;100.00;101433.50;5034864;28;20352;-72
2023/09/29 10:05:22;;;;;;;;;;;;;;;19.86;100.00;101446.38;5034694;28;19990;-70
2023/09/29 10:07:49;;;;;;;;;;;;;;;19.71;100.00;101449.75;5033897;28;20357;-71
2023/09/29 10:10:25;;;;;;;;;;;;;;;19.54;100.00;101456.13;5035694;28;19959;-71
2023/09/29 10:12:55;;;;;;;;;;;;;;;19.72;100.00;101451.44;5035518;28;19928;-71
2023/09/29 10:15:20;;;;;;;;;;;;;;;19.64;100.00;101451.41;5035713;28;19921;-71
2023/09/29 10:17:47;;;;;;;;;;;;;;;19.64;100.00;101449.53;5036579;28;19921;-71
2023/09/29 10:20:24;;;;;;;;;;;;;;;19.79;100.00;101443.47;5019075;28;19999;-70
2023/09/29 10:22:54;;;;;;;;;;;;;;;20.04;100.00;101429.91;5034660;28;19931;-70
2023/09/29 10:25:24;;;;;;;;;;;;;;;20.25;100.00;101444.94;5035922;28;19925;-71
2023/09/29 10:27:58;;;;;;;;;;;;;;;20.32;100.00;101448.69;5039053;28;19970;-71
2023/09/29 10:30:25;;;;;;;;;;;;;;;20.29;100.00;101451.75;5039276;28;19970;-71
2023/09/29 10:33:01;;;;;;;;;;;;;;;20.26;100.00;101446.63;5055499;28;19932;-70
2023/09/29 10:35:26;;;;;;;;;;;;;;;20.17;100.00;101449.34;5035692;28;20394;-72
2023/09/29 10:37:54;;;;;;;;;;;;;;;20.30;100.00;101450.75;5038161;28;20045;-71
2023/09/29 10:40:20;;;;;;;;;;;;;;;20.50;100.00;101448.53;5026567;28;19921;-71
2023/09/29 10:42:46;;;;;;;;;;;;;;;20.50;100.00;101454.00;5033917;28;19995;-70
2023/09/29 10:45:11;;;;;;;;;;;;;;;20.66;100.00;101462.16;5055812;28;20044;-71
2023/09/29 10:47:37;;;;;;;;;;;;;;;20.62;100.00;101449.03;5038179;28;19920;-71
2023/09/29 10:50:06;;;;;;;;;;;;;;;20.51;100.00;101452.97;5022817;28;20306;-70
2023/09/29 10:52:31;;;;;;;;;;;;;;;20.45;100.00;101457.22;5037559;28;19932;-71
2023/09/29 10:54:58;;;;;;;;;;;;;;;20.34;100.00;101458.41;5039330;28;19921;-70
2023/09/29 10:57:25;;;;;;;;;;;;;;;20.24;100.00;101465.91;5039757;28;20011;-70
2023/09/29 10:59:52;;;;;;;;;;;;;;;20.20;100.00;101464.53;5038357;28;19968;-71
2023/09/29 11:02:17;;;;;;;;;;;;;;;20.07;100.00;101465.88;5039975;28;19920;-70
2023/09/29 11:04:46;;;;;;;;;;;;;;;20.06;100.00;101477.78;5038756;28;20314;-70
2023/09/29 11:07:12;;;;;;;;;;;;;;;20.13;100.00;101464.34;5037965;28;19924;-70
2023/09/29 11:09:37;;;;;;;;;;;;;;;20.04;100.00;101466.19;5037935;28;20298;-72
2023/09/29 11:12:03;;;;;;;;;;;;;;;20.12;100.00;101468.09;5038146;28;19936;-71
2023/09/29 11:14:35;;;;;;;;;;;;;;;20.14;100.00;101479.66;5038583;28;19921;-70
2023/09/29 11:17:01;;;;;;;;;;;;;;;20.05;100.00;101475.25;5038660;28;19921;-69
2023/09/29 11:19:30;;;;;;;;;;;;;;;20.00;100.00;101478.44;5037618;28;20175;-71
2023/09/29 11:21:55;;;;;;;;;;;;;;;19.97;100.00;101486.09;5022175;28;20370;-73
2023/09/29 11:24:21;;;;;;;;;;;;;;;20.01;100.00;101484.75;5020419;28;19966;-70
2023/09/29 11:26:47;;;;;;;;;;;;;;;20.06;100.00;101483.22;5038170;28;20456;-71
2023/09/29 11:29:20;;;;;;;;;;;;;;;20.12;100.00;101489.03;5038291;28;19912;-71
2023/09/29 11:31:45;;;;;;;;;;;;;;;20.30;100.00;101475.28;5021765;28;20027;-71
2023/09/29 11:34:13;;;;;;;;;;;;;;;21.22;100.00;101472.34;5039125;28;19921;-71
2023/09/29 11:36:38;;;;;;;;;;;;;;;22.15;100.00;101477.25;5037196;28;19921;-72
2023/09/29 11:39:03;;;;;;;;;;;;;;;23.14;100.00;101461.91;5036570;28;19920;-71
2023/09/29 11:41:29;;;;;;;;;;;;;;;23.98;100.00;101462.59;5020252;28;20412;-70
2023/09/29 11:43:54;;;;;;;;;;;;;;;23.48;100.00;101472.31;5037935;28;19944;-70
2023/09/29 11:46:20;;;;;;;;;;;;;;;23.24;100.00;101461.66;5037666;28;19967;-71
2023/09/29 11:48:46;;;;;;;;;;;;;;;22.93;100.00;101466.19;5037666;28;20007;-69
2023/09/29 11:51:13;;;;;;;;;;;;;;;22.79;100.00;101469.78;5039189;28;19920;-71
2023/09/29 11:53:38;;;;;;;;;;;;;;;22.54;100.00;101464.50;5037607;28;20648;-71
2023/09/29 11:56:04;;;;;;;;;;;;;;;22.52;100.00;101472.06;5021174;28;19972;-71
2023/09/29 11:58:32;;;;;;;;;;;;;;;22.12;100.00;101474.88;5020210;28;19928;-71
2023/09/29 12:00:58;;;;;;;;;;;;;;;21.87;100.00;101481.31;5021811;28;19927;-72
2023/09/29 12:03:23;;;;;;;;;;;;;;;22.11;100.00;101482.25;5020999;28;19924;-69
2023/09/29 12:05:50;;;;;;;;;;;;;;;22.35;100.00;101474.03;5037880;28;19920;-72
2023/09/29 12:08:15;;;;;;;;;;;;;;;22.22;100.00;101480.09;5036282;28;20520;-73
2023/09/29 12:10:40;;;;;;;;;;;;;;;22.03;100.00;101463.16;5037228;28;19920;-72
2023/09/29 12:13:06;;;;;;;;;;;;;;;22.09;100.00;101489.78;5037361;28;19925;-71
2023/09/29 12:15:32;;;;;;;;;;;;;;;21.80;100.00;101476.75;5038317;28;19931;-71
2023/09/29 12:17:57;;;;;;;;;;;;;;;22.09;100.00;101473.38;5036754;28;19939;-72
2023/09/29 12:20:24;;;;;;;;;;;;;;;22.09;100.00;101481.56;5037483;28;19929;-70
2023/09/29 12:22:50;;;;;;;;;;;;;;;22.11;100.00;101498.66;5037245;28;20027;-70